createdAt,value
2019-05-26T00:01:14.399Z,12.7
2019-05-26T00:03:19.485Z,12.6
2019-05-26T00:05:24.497Z,12.5
2019-05-26T00:06:26.721Z,12.4
2019-05-26T00:08:34.416Z,12.5
2019-05-26T00:10:38.878Z,12.5
2019-05-26T00:11:41.044Z,12.5
2019-05-26T00:12:43.238Z,12.5
2019-05-26T00:13:45.428Z,12.4
2019-05-26T00:15:50.457Z,12.3
2019-05-26T00:17:55.626Z,12.2
2019-05-26T00:18:58.095Z,12.4
2019-05-26T00:20:00.706Z,12.4
2019-05-26T00:21:03.680Z,12.5
2019-05-26T00:23:09.381Z,12.5
2019-05-26T00:25:14.168Z,12.5
2019-05-26T00:26:16.348Z,12.4
2019-05-26T00:28:20.804Z,12.4
2019-05-26T00:30:25.291Z,12.4
2019-05-26T00:31:27.879Z,12.4
2019-05-26T00:32:30.068Z,12.4
2019-05-26T00:33:32.259Z,12.4
2019-05-26T00:35:36.611Z,12.3
2019-05-26T00:37:52.108Z,12.2
2019-05-26T00:39:56.863Z,12
2019-05-26T00:40:59.029Z,12.3
2019-05-26T00:43:03.751Z,12.3
2019-05-26T00:45:08.224Z,12.3
2019-05-26T00:46:10.423Z,12.3
2019-05-26T00:47:13.296Z,12.3
2019-05-26T00:48:15.450Z,12.3
2019-05-26T00:50:20.208Z,12.4
2019-05-26T00:52:24.656Z,12.1
2019-05-26T00:53:26.852Z,12
2019-05-26T00:55:31.273Z,12.2
2019-05-26T00:57:35.703Z,12.3
2019-05-26T00:58:38.441Z,12.2
2019-05-26T00:59:40.906Z,12.2
2019-05-26T01:00:43.095Z,12.1
2019-05-26T01:02:47.467Z,12
2019-05-26T01:04:51.895Z,12.1
2019-05-26T01:05:54.087Z,12
2019-05-26T01:08:08.376Z,12.1
2019-05-26T01:10:13.506Z,12
2019-05-26T01:12:18.167Z,12.1
2019-05-26T01:13:20.378Z,11.9
2019-05-26T01:15:24.718Z,12.1
2019-05-26T01:17:29.151Z,12.1
2019-05-26T01:19:34.991Z,12
2019-05-26T01:20:37.188Z,12
2019-05-26T01:22:42.501Z,12.1
2019-05-26T01:24:46.867Z,12.1
2019-05-26T01:25:49.307Z,12
2019-05-26T01:26:51.490Z,12
2019-05-26T01:27:53.654Z,12.1
2019-05-26T01:29:58.091Z,12
2019-05-26T01:32:04.152Z,11.9
2019-05-26T01:33:06.963Z,12
2019-05-26T01:35:11.738Z,11.8
2019-05-26T01:37:16.364Z,11.9
2019-05-26T01:39:28.142Z,12
2019-05-26T01:40:30.327Z,12
2019-05-26T01:42:35.031Z,12.1
2019-05-26T01:44:39.451Z,12.1
2019-05-26T01:45:41.631Z,11.9
2019-05-26T01:46:43.784Z,11.8
2019-05-26T01:47:45.970Z,11.9
2019-05-26T01:49:51.104Z,12
2019-05-26T01:51:55.439Z,11.9
2019-05-26T01:52:57.612Z,12
2019-05-26T01:55:02.627Z,11.9
2019-05-26T01:57:07.372Z,11.8
2019-05-26T01:59:12.519Z,11.9
2019-05-26T02:00:14.674Z,12
2019-05-26T02:02:19.505Z,11.8
2019-05-26T02:04:24.572Z,11.8
2019-05-26T02:05:26.717Z,11.9
2019-05-26T02:06:29.261Z,11.9
2019-05-26T02:07:32.991Z,11.8
2019-05-26T02:08:41.301Z,11.7
2019-05-26T02:09:44.045Z,11.7
2019-05-26T02:11:49.156Z,11.7
2019-05-26T02:12:51.315Z,11.7
2019-05-26T02:13:53.763Z,11.8
2019-05-26T02:14:56.240Z,11.8
2019-05-26T02:17:00.583Z,11.8
2019-05-26T02:19:05.225Z,11.6
2019-05-26T02:20:07.390Z,11.7
2019-05-26T02:22:12.476Z,11.9
2019-05-26T02:24:17.263Z,11.9
2019-05-26T02:25:19.760Z,11.7
2019-05-26T02:26:21.937Z,11.8
2019-05-26T02:27:24.108Z,11.9
2019-05-26T02:29:28.508Z,11.6
2019-05-26T02:31:33.520Z,11.7
2019-05-26T02:32:36.004Z,11.8
2019-05-26T02:34:41.018Z,11.9
2019-05-26T02:36:45.496Z,11.6
2019-05-26T02:39:04.931Z,11.7
2019-05-26T02:40:07.065Z,11.9
2019-05-26T02:41:09.813Z,11.9
2019-05-26T02:42:13.364Z,11.9
2019-05-26T02:44:17.804Z,11.8
2019-05-26T02:46:22.886Z,11.9
2019-05-26T02:47:25.479Z,12
2019-05-26T02:49:30.205Z,12
2019-05-26T02:51:35.504Z,11.9
2019-05-26T02:53:40.400Z,12.1
2019-05-26T02:54:42.617Z,12
2019-05-26T02:56:48.120Z,12
2019-05-26T02:58:52.895Z,12
2019-05-26T02:59:55.366Z,12
2019-05-26T03:02:05.863Z,11.7
2019-05-26T03:04:11.074Z,11.8
2019-05-26T03:06:16.315Z,11.9
2019-05-26T03:07:18.560Z,12.1
2019-05-26T03:09:25.867Z,11.8
2019-05-26T03:11:31.124Z,11.8
2019-05-26T03:13:35.831Z,11.6
2019-05-26T03:14:38.010Z,11.5
2019-05-26T03:16:43.027Z,11.6
2019-05-26T03:18:48.791Z,11.8
2019-05-26T03:19:50.924Z,11.5
2019-05-26T03:21:56.150Z,11.7
2019-05-26T03:24:00.591Z,11.6
2019-05-26T03:26:05.872Z,11.7
2019-05-26T03:27:08.321Z,11.8
2019-05-26T03:29:13.038Z,11.6
2019-05-26T03:31:18.336Z,11.9
2019-05-26T03:32:20.851Z,11.9
2019-05-26T03:33:23.140Z,11.7
2019-05-26T03:34:26.153Z,11.7
2019-05-26T03:36:31.167Z,11.7
2019-05-26T03:38:36.517Z,11.7
2019-05-26T03:39:48.132Z,11.7
2019-05-26T03:40:50.930Z,11.8
2019-05-26T03:41:53.500Z,11.8
2019-05-26T03:43:58.625Z,11.9
2019-05-26T03:46:03.511Z,12
2019-05-26T03:47:05.706Z,12
2019-05-26T03:49:11.214Z,12.1
2019-05-26T03:51:16.339Z,12
2019-05-26T03:53:21.499Z,12.2
2019-05-26T03:54:24.637Z,12.1
2019-05-26T03:56:30.427Z,12.1
2019-05-26T03:58:35.803Z,12.2
2019-05-26T03:59:37.948Z,12.1
2019-05-26T04:00:40.969Z,12
2019-05-26T04:01:43.607Z,12
2019-05-26T04:03:48.433Z,12.1
2019-05-26T04:05:53.822Z,12
2019-05-26T04:06:56.717Z,11.9
2019-05-26T04:08:06.003Z,11.9
2019-05-26T04:09:08.757Z,11.9
2019-05-26T04:11:13.860Z,11.8
2019-05-26T04:13:19.415Z,12.3
2019-05-26T04:14:21.863Z,12.1
2019-05-26T04:16:26.331Z,12.3
2019-05-26T04:18:30.748Z,12.1
2019-05-26T04:20:36.024Z,12.1
2019-05-26T04:21:38.928Z,12.4
2019-05-26T04:23:44.092Z,12.3
2019-05-26T04:25:48.526Z,12.4
2019-05-26T04:26:50.705Z,12.3
2019-05-26T04:27:53.221Z,12.2
2019-05-26T04:28:55.705Z,12.3
2019-05-26T04:31:00.809Z,12.2
2019-05-26T04:33:06.481Z,12.2
2019-05-26T04:34:08.975Z,12.3
2019-05-26T04:36:13.882Z,12.4
2019-05-26T04:38:19.907Z,12.7
2019-05-26T04:40:29.225Z,12.6
2019-05-26T04:41:32.416Z,12.5
2019-05-26T04:43:37.244Z,12.5
2019-05-26T04:45:42.393Z,12.8
2019-05-26T04:47:47.005Z,12.7
2019-05-26T04:48:49.597Z,12.6
2019-05-26T04:50:54.651Z,12.9
2019-05-26T04:53:08.404Z,12.8
2019-05-26T04:55:14.199Z,13
2019-05-26T04:56:16.679Z,12.9
2019-05-26T04:58:21.150Z,12.9
2019-05-26T05:00:26.398Z,12.9
2019-05-26T05:01:29.248Z,12.8
2019-05-26T05:02:31.451Z,13
2019-05-26T05:03:33.617Z,12.8
2019-05-26T05:05:38.043Z,13.4
2019-05-26T05:07:42.511Z,13.2
2019-05-26T05:08:44.691Z,13.4
2019-05-26T05:10:49.387Z,13.3
2019-05-26T05:12:53.843Z,13.3
2019-05-26T05:13:56.328Z,13.4
2019-05-26T05:14:58.458Z,13.4
2019-05-26T05:16:00.613Z,13.2
2019-05-26T05:18:05.047Z,13.1
2019-05-26T05:20:09.543Z,13.4
2019-05-26T05:21:12.335Z,13.4
2019-05-26T05:23:16.758Z,13.4
2019-05-26T05:25:21.181Z,13.2
2019-05-26T05:27:25.995Z,13.5
2019-05-26T05:28:28.169Z,13.6
2019-05-26T05:30:32.563Z,13.4
2019-05-26T05:32:38.698Z,13.7
2019-05-26T05:33:41.238Z,13.3
2019-05-26T05:34:43.467Z,13.5
2019-05-26T05:35:45.660Z,13.5
2019-05-26T05:37:50.070Z,13.8
2019-05-26T05:39:54.770Z,13.9
2019-05-26T05:41:02.135Z,13.7
2019-05-26T05:43:06.944Z,13.9
2019-05-26T05:45:11.367Z,14.2
2019-05-26T05:47:16.162Z,14.2
2019-05-26T05:48:18.336Z,14.4
2019-05-26T05:50:22.734Z,14.4
2019-05-26T05:52:27.163Z,14.2
2019-05-26T05:53:29.315Z,14.4
2019-05-26T05:54:31.849Z,14.6
2019-05-26T05:55:34.020Z,14.5
2019-05-26T05:57:38.738Z,14.2
2019-05-26T05:59:43.764Z,14.3
2019-05-26T06:00:45.998Z,14.5
2019-05-26T06:02:51.419Z,14.1
2019-05-26T06:04:55.848Z,14.2
2019-05-26T06:07:00.580Z,14.6
2019-05-26T06:08:03.118Z,14.7
2019-05-26T06:10:08.171Z,14.8
2019-05-26T06:11:18.768Z,14.8
2019-05-26T06:12:21.004Z,14.6
2019-05-26T06:14:25.527Z,14.7
2019-05-26T06:15:27.689Z,14.9
2019-05-26T06:17:32.473Z,15.2
2019-05-26T06:19:37.126Z,15.2
2019-05-26T06:20:39.354Z,15
2019-05-26T06:21:41.558Z,15.3
2019-05-26T06:22:43.815Z,15.1
2019-05-26T06:24:48.255Z,15
2019-05-26T06:26:53.665Z,15.2
2019-05-26T06:27:56.717Z,15.2
2019-05-26T06:30:01.770Z,15.3
2019-05-26T06:32:09.111Z,15.3
2019-05-26T06:34:13.688Z,15.4
2019-05-26T06:35:16.188Z,15.6
2019-05-26T06:37:20.985Z,15.7
2019-05-26T06:39:25.690Z,15.2
2019-05-26T06:40:27.877Z,15.5
2019-05-26T06:41:36.027Z,15.8
2019-05-26T06:42:38.613Z,15.6
2019-05-26T06:44:55.162Z,15.6
2019-05-26T06:46:59.600Z,15.6
2019-05-26T06:49:04.018Z,15.8
2019-05-26T06:50:06.885Z,16
2019-05-26T06:52:11.245Z,16.1
2019-05-26T06:54:15.697Z,15.9
2019-05-26T06:55:17.936Z,15.8
2019-05-26T06:56:20.821Z,15.9
2019-05-26T06:57:22.978Z,15.9
2019-05-26T06:59:28.211Z,15.9
2019-05-26T07:01:32.711Z,16.1
2019-05-26T07:02:35.283Z,16
2019-05-26T07:04:40.113Z,16.3
2019-05-26T07:06:44.547Z,16.4
2019-05-26T07:08:49.555Z,16
2019-05-26T07:09:51.763Z,15.9
2019-05-26T07:12:08.236Z,15.6
2019-05-26T07:13:26.965Z,16.1
2019-05-26T07:14:34.552Z,16.4
2019-05-26T07:16:40.077Z,16.6
2019-05-26T07:17:42.211Z,16.4
2019-05-26T07:19:47.472Z,16.7
2019-05-26T07:21:52.598Z,16.5
2019-05-26T07:22:54.783Z,16.8
2019-05-26T07:23:57.651Z,17
2019-05-26T07:24:59.820Z,17.2
2019-05-26T07:27:05.070Z,16.6
2019-05-26T07:29:09.884Z,17
2019-05-26T07:30:12.120Z,17.2
2019-05-26T07:32:16.859Z,16.8
2019-05-26T07:34:21.904Z,16.7
2019-05-26T07:36:26.348Z,16.9
2019-05-26T07:37:28.561Z,17.1
2019-05-26T07:39:33.040Z,16.8
2019-05-26T07:41:38.764Z,17.3
2019-05-26T07:42:41.305Z,17.1
2019-05-26T07:43:43.789Z,17
2019-05-26T07:44:45.998Z,17.3
2019-05-26T07:46:51.394Z,17.2
2019-05-26T07:48:56.672Z,17.3
2019-05-26T07:49:59.158Z,17
2019-05-26T07:52:04.340Z,17.3
2019-05-26T07:54:27.246Z,17.5
2019-05-26T07:56:32.003Z,17.3
2019-05-26T07:57:34.208Z,17.4
2019-05-26T07:58:36.802Z,17.4
2019-05-26T07:59:39.001Z,17.6
2019-05-26T08:01:44.148Z,17.6
2019-05-26T08:03:49.058Z,17.8
2019-05-26T08:04:51.286Z,18
2019-05-26T08:06:56.057Z,17.8
2019-05-26T08:08:14.859Z,17.9
2019-05-26T08:09:17.005Z,17.7
2019-05-26T08:11:21.443Z,17.6
2019-05-26T08:13:34.119Z,17.9
2019-05-26T08:14:36.345Z,17.9
2019-05-26T08:16:41.117Z,17.6
2019-05-26T08:18:45.973Z,17.9
2019-05-26T08:19:48.795Z,18.3
2019-05-26T08:20:51.009Z,18.5
2019-05-26T08:21:56.130Z,18.5
2019-05-26T08:24:01.236Z,18.8
2019-05-26T08:26:05.975Z,18.7
2019-05-26T08:27:08.173Z,19.2
2019-05-26T08:29:12.824Z,19.1
2019-05-26T08:31:17.334Z,18.7
2019-05-26T08:33:21.906Z,18.7
2019-05-26T08:34:24.083Z,19
2019-05-26T08:36:28.559Z,18.7
2019-05-26T08:38:33.031Z,18.7
2019-05-26T08:39:35.287Z,19
2019-05-26T08:40:39.556Z,19.4
2019-05-26T08:41:47.603Z,19
2019-05-26T08:42:55.290Z,19.2
2019-05-26T08:44:02.514Z,18.9
2019-05-26T08:46:10.486Z,18.9
2019-05-26T08:47:18.754Z,19.3
2019-05-26T08:48:22.767Z,19.4
2019-05-26T08:49:28.506Z,19.1
2019-05-26T08:50:36.979Z,19.3
2019-05-26T08:51:41.884Z,19.1
2019-05-26T08:52:46.913Z,18.8
2019-05-26T08:54:53.809Z,18.6
2019-05-26T08:57:08.379Z,18.8
2019-05-26T08:58:13.931Z,18.8
2019-05-26T08:59:20.007Z,18.9
2019-05-26T09:00:27.988Z,18.8
2019-05-26T09:01:42.245Z,19
2019-05-26T09:02:59.697Z,19.1
2019-05-26T09:05:11.202Z,19.2
2019-05-26T09:06:18.905Z,19.1
2019-05-26T09:07:30.082Z,19.2
2019-05-26T09:08:33.364Z,19.2
2019-05-26T09:10:45.203Z,19.5
2019-05-26T09:13:04.970Z,19.3
2019-05-26T09:15:12.795Z,19.2
2019-05-26T09:16:17.438Z,19.2
2019-05-26T09:17:29.237Z,19.3
2019-05-26T09:18:36.626Z,19.7
2019-05-26T09:20:56.019Z,19.1
2019-05-26T09:22:01.268Z,19.1
2019-05-26T09:23:05.706Z,19.4
2019-05-26T09:24:16.382Z,19
2019-05-26T09:25:21.784Z,19
2019-05-26T09:26:32.915Z,18.9
2019-05-26T09:27:41.311Z,19
2019-05-26T09:28:44.618Z,19.1
2019-05-26T09:29:49.579Z,19.3
2019-05-26T09:31:56.861Z,19
2019-05-26T09:34:04.524Z,19.3
2019-05-26T09:36:12.193Z,19
2019-05-26T09:37:14.912Z,18.9
2019-05-26T09:39:20.280Z,19.6
2019-05-26T09:41:24.850Z,19.6
2019-05-26T09:43:29.500Z,19.7
2019-05-26T09:44:31.722Z,19.8
2019-05-26T09:46:36.182Z,19.2
2019-05-26T09:48:41.772Z,19.4
2019-05-26T09:49:43.970Z,19.3
2019-05-26T09:50:46.095Z,19.4
2019-05-26T09:51:48.600Z,19.5
2019-05-26T09:54:03.551Z,20.2
2019-05-26T09:56:07.955Z,20.1
2019-05-26T09:57:10.311Z,19.9
2019-05-26T09:58:12.591Z,19.8
2019-05-26T09:59:14.774Z,19.7
2019-05-26T10:01:21.296Z,20
2019-05-26T10:03:26.071Z,20
2019-05-26T10:04:28.556Z,20.3
2019-05-26T10:06:34.648Z,20
2019-05-26T10:08:39.073Z,20
2019-05-26T10:10:43.646Z,19.6
2019-05-26T10:11:46.146Z,19.7
2019-05-26T10:13:50.736Z,20
2019-05-26T10:15:55.639Z,19.6
2019-05-26T10:16:57.977Z,19.5
2019-05-26T10:18:00.351Z,19.3
2019-05-26T10:19:02.954Z,19.3
2019-05-26T10:21:08.066Z,19.6
2019-05-26T10:23:12.704Z,19.7
2019-05-26T10:24:15.237Z,20
2019-05-26T10:26:19.750Z,19.9
2019-05-26T10:28:26.257Z,19.5
2019-05-26T10:30:32.263Z,19.9
2019-05-26T10:31:34.908Z,19.9
2019-05-26T10:33:40.249Z,19.2
2019-05-26T10:35:45.393Z,18.9
2019-05-26T10:36:47.939Z,19
2019-05-26T10:37:50.568Z,18.9
2019-05-26T10:38:52.850Z,18.5
2019-05-26T10:40:57.375Z,18.8
2019-05-26T10:43:01.737Z,18.6
2019-05-26T10:44:04.221Z,18.3
2019-05-26T10:46:08.939Z,18.8
2019-05-26T10:48:13.405Z,18.8
2019-05-26T10:49:15.987Z,18.7
2019-05-26T10:50:18.159Z,18.6
2019-05-26T10:51:20.656Z,19
2019-05-26T10:53:25.430Z,18.8
2019-05-26T10:55:29.899Z,19
2019-05-26T10:56:32.092Z,18.9
2019-05-26T10:58:36.844Z,18.8
2019-05-26T11:00:41.578Z,18.6
2019-05-26T11:02:47.533Z,18.5
2019-05-26T11:03:50.015Z,18.8
2019-05-26T11:05:54.774Z,19.1
2019-05-26T11:08:00.384Z,18.6
2019-05-26T11:09:02.570Z,18.4
2019-05-26T11:10:05.204Z,18.7
2019-05-26T11:11:07.781Z,18.5
2019-05-26T11:13:12.240Z,18.6
2019-05-26T11:15:16.986Z,18.7
2019-05-26T11:16:19.213Z,18.6
2019-05-26T11:18:23.626Z,19.2
2019-05-26T11:20:28.339Z,18.8
2019-05-26T11:22:32.848Z,18.6
2019-05-26T11:23:35.037Z,18.9
2019-05-26T11:25:40.304Z,18.8
2019-05-26T11:27:44.757Z,18.8
2019-05-26T11:28:46.938Z,18.8
2019-05-26T11:29:49.125Z,18.6
2019-05-26T11:30:52.165Z,18.5
2019-05-26T11:33:00.717Z,18.9
2019-05-26T11:35:05.934Z,19.1
2019-05-26T11:36:08.505Z,19.2
2019-05-26T11:38:13.041Z,18.8
2019-05-26T11:40:17.703Z,19.1
2019-05-26T11:42:22.458Z,19.1
2019-05-26T11:43:24.650Z,19.4
2019-05-26T11:45:29.367Z,19.5
2019-05-26T11:47:33.828Z,19.3
2019-05-26T11:48:40.522Z,19.3
2019-05-26T11:49:43.733Z,19.4
2019-05-26T11:50:46.220Z,19.7
2019-05-26T11:52:50.988Z,19.5
2019-05-26T11:54:55.529Z,19.3
2019-05-26T11:55:57.709Z,19.7
2019-05-26T11:58:02.469Z,19.6
2019-05-26T12:00:10.182Z,19.9
2019-05-26T12:02:15.912Z,19.6
2019-05-26T12:03:18.422Z,20
2019-05-26T12:05:22.845Z,19.9
2019-05-26T12:07:27.749Z,19.6
2019-05-26T12:08:30.746Z,19.6
2019-05-26T12:09:33.281Z,19.6
2019-05-26T12:10:36.060Z,19.8
2019-05-26T12:12:40.647Z,19.9
2019-05-26T12:14:46.001Z,19.6
2019-05-26T12:15:48.455Z,19.8
2019-05-26T12:17:54.143Z,19.6
2019-05-26T12:19:59.380Z,19.6
2019-05-26T12:22:05.145Z,19.8
2019-05-26T12:23:07.911Z,19.8
2019-05-26T12:25:25.638Z,20
2019-05-26T12:26:53.931Z,20.1
2019-05-26T12:28:09.834Z,19.9
2019-05-26T12:30:18.022Z,19.7
2019-05-26T12:32:29.233Z,19.7
2019-05-26T12:33:31.648Z,19.7
2019-05-26T12:35:37.602Z,19.8
2019-05-26T12:36:47.159Z,19.6
2019-05-26T12:37:57.037Z,19.5
2019-05-26T12:39:02.084Z,19.9
2019-05-26T12:41:13.068Z,20.3
2019-05-26T12:42:21.507Z,19.9
2019-05-26T12:43:36.645Z,20
2019-05-26T12:44:51.941Z,20.1
2019-05-26T12:45:55.400Z,20.1
2019-05-26T12:46:58.159Z,20.2
2019-05-26T12:49:08.674Z,20.2
2019-05-26T12:50:19.795Z,20.2
2019-05-26T12:51:23.706Z,20.3
2019-05-26T12:52:26.200Z,20.4
2019-05-26T12:54:32.843Z,21
2019-05-26T12:56:42.446Z,20.6
2019-05-26T12:57:44.901Z,20.4
2019-05-26T12:58:54.315Z,20.4
2019-05-26T13:00:02.190Z,20.4
2019-05-26T13:01:11.760Z,20.4
2019-05-26T13:02:28.765Z,20.5
2019-05-26T13:03:35.885Z,20.2
2019-05-26T13:04:40.186Z,20.2
2019-05-26T13:05:44.637Z,20.1
2019-05-26T13:06:57.249Z,20.6
2019-05-26T13:07:59.824Z,20.6
2019-05-26T13:09:12.441Z,20.1
2019-05-26T13:10:25.705Z,20.5
2019-05-26T13:11:28.385Z,20.1
2019-05-26T13:12:36.229Z,20.4
2019-05-26T13:13:43.442Z,20.3
2019-05-26T13:15:51.006Z,20.2
2019-05-26T13:16:54.170Z,20.4
2019-05-26T13:18:00.465Z,20.4
2019-05-26T13:19:02.938Z,20.5
2019-05-26T13:21:07.552Z,20.2
2019-05-26T13:23:11.978Z,20.7
2019-05-26T13:24:14.189Z,20.6
2019-05-26T13:26:18.664Z,20.7
2019-05-26T13:28:24.146Z,21.4
2019-05-26T13:30:30.642Z,21.1
2019-05-26T13:31:33.145Z,21.2
2019-05-26T13:33:37.787Z,21.3
2019-05-26T13:35:42.231Z,21.1
2019-05-26T13:36:44.387Z,21.3
2019-05-26T13:37:46.571Z,21.1
2019-05-26T13:38:49.479Z,20.9
2019-05-26T13:40:53.939Z,21.4
2019-05-26T13:42:59.029Z,21.5
2019-05-26T13:44:02.021Z,21.6
2019-05-26T13:46:06.745Z,21.9
2019-05-26T13:48:11.467Z,21.5
2019-05-26T13:50:16.266Z,21.9
2019-05-26T13:51:18.780Z,21.7
2019-05-26T13:53:23.899Z,21.8
2019-05-26T13:55:28.413Z,22.9
2019-05-26T13:56:30.613Z,22.9
2019-05-26T13:57:33.792Z,22.8
2019-05-26T13:58:36.001Z,22.9
2019-05-26T14:00:40.477Z,23
2019-05-26T14:02:44.907Z,22.5
2019-05-26T14:03:47.098Z,22.8
2019-05-26T14:05:51.900Z,22.3
2019-05-26T14:07:57.004Z,22.7
2019-05-26T14:10:05.674Z,22.9
2019-05-26T14:11:07.853Z,23
2019-05-26T14:13:12.331Z,23.3
2019-05-26T14:15:17.072Z,22.9
2019-05-26T14:16:19.553Z,22.8
2019-05-26T14:17:22.159Z,23.2
2019-05-26T14:18:24.328Z,23.1
2019-05-26T14:20:28.812Z,22.6
2019-05-26T14:22:33.255Z,22.6
2019-05-26T14:23:35.460Z,22.8
2019-05-26T14:24:54.853Z,23
2019-05-26T14:25:56.995Z,22.7
2019-05-26T14:28:01.729Z,22.7
2019-05-26T14:30:06.499Z,22.6
2019-05-26T14:31:08.684Z,22.8
2019-05-26T14:33:13.509Z,22.5
2019-05-26T14:35:17.962Z,22.4
2019-05-26T14:37:22.742Z,22.7
2019-05-26T14:38:25.212Z,22.9
2019-05-26T14:40:30.076Z,22.7
2019-05-26T14:42:35.667Z,22.6
2019-05-26T14:43:38.231Z,22.7
2019-05-26T14:44:40.718Z,22.6
2019-05-26T14:45:55.296Z,22.7
2019-05-26T14:48:00.906Z,22.4
2019-05-26T14:50:05.322Z,22.5
2019-05-26T14:52:10.094Z,22.5
2019-05-26T14:53:12.947Z,22.2
2019-05-26T14:55:18.249Z,22.5
2019-05-26T14:57:23.047Z,22.5
2019-05-26T14:58:25.235Z,22.4
2019-05-26T14:59:27.442Z,22.2
2019-05-26T15:00:29.672Z,22.4
2019-05-26T15:02:34.134Z,23
2019-05-26T15:04:38.893Z,22.3
2019-05-26T15:05:41.393Z,22.1
2019-05-26T15:07:46.612Z,22.4
2019-05-26T15:09:51.440Z,22.5
2019-05-26T15:11:56.255Z,22.6
2019-05-26T15:12:58.457Z,22.8
2019-05-26T15:15:02.938Z,22.3
2019-05-26T15:16:11.902Z,22.7
2019-05-26T15:17:14.072Z,22.4
2019-05-26T15:19:18.822Z,23
2019-05-26T15:20:21.112Z,22.9
2019-05-26T15:22:25.538Z,22.8
2019-05-26T15:24:30.048Z,22.7
2019-05-26T15:25:34.275Z,22.8
2019-05-26T15:27:50.249Z,22.5
2019-05-26T15:28:53.783Z,22.6
2019-05-26T15:30:01.815Z,22.5
2019-05-26T15:31:10.312Z,22.9
2019-05-26T15:32:14.624Z,22.8
2019-05-26T15:33:18.718Z,22.6
2019-05-26T15:34:22.723Z,23
2019-05-26T15:35:25.365Z,22.7
2019-05-26T15:37:30.995Z,22.6
2019-05-26T15:38:44.754Z,23
2019-05-26T15:39:47.869Z,23.1
2019-05-26T15:40:50.561Z,22.9
2019-05-26T15:41:59.845Z,23.1
2019-05-26T15:43:04.945Z,23
2019-05-26T15:45:14.489Z,22.3
2019-05-26T15:46:27.518Z,22.4
2019-05-26T15:47:29.866Z,22.6
2019-05-26T15:48:32.164Z,22.7
2019-05-26T15:49:34.678Z,22.8
2019-05-26T15:50:36.889Z,22.9
2019-05-26T15:52:41.753Z,22.7
2019-05-26T15:54:46.523Z,22.8
2019-05-26T15:55:48.718Z,22.9
2019-05-26T15:57:53.487Z,22.8
2019-05-26T15:59:58.290Z,23
2019-05-26T16:02:02.770Z,22.6
2019-05-26T16:03:05.245Z,22.9
2019-05-26T16:05:10.282Z,23
2019-05-26T16:07:15.044Z,23
2019-05-26T16:08:17.629Z,23.3
2019-05-26T16:09:19.929Z,23.1
2019-05-26T16:10:22.140Z,22.8
2019-05-26T16:12:26.856Z,22.8
2019-05-26T16:14:31.315Z,22.9
2019-05-26T16:15:33.813Z,23
2019-05-26T16:16:43.301Z,22.8
2019-05-26T16:17:45.496Z,23
2019-05-26T16:19:49.966Z,22.7
2019-05-26T16:21:04.811Z,22.8
2019-05-26T16:22:07.037Z,22.8
2019-05-26T16:23:10.224Z,22.6
2019-05-26T16:24:12.445Z,22.9
2019-05-26T16:25:14.656Z,22.7
2019-05-26T16:27:20.994Z,23
2019-05-26T16:29:25.807Z,23
2019-05-26T16:30:28.325Z,23
2019-05-26T16:32:34.627Z,22.8
2019-05-26T16:34:43.035Z,22.6
2019-05-26T16:36:51.759Z,22.8
2019-05-26T16:37:54.421Z,22.9
2019-05-26T16:40:12.112Z,22.8
2019-05-26T16:42:17.494Z,22.5
2019-05-26T16:44:22.296Z,22.3
2019-05-26T16:45:25.732Z,22.4
2019-05-26T16:47:30.267Z,22.8
2019-05-26T16:49:35.371Z,22.8
2019-05-26T16:50:37.646Z,22.9
2019-05-26T16:51:39.820Z,22.7
2019-05-26T16:52:41.958Z,22.4
2019-05-26T16:54:46.520Z,22.3
2019-05-26T16:56:51.572Z,22.5
2019-05-26T16:57:54.047Z,22.3
2019-05-26T16:59:58.658Z,22.7
2019-05-26T17:02:03.791Z,22.6
2019-05-26T17:04:11.170Z,22.5
2019-05-26T17:05:13.359Z,22.4
2019-05-26T17:07:17.771Z,22.5
2019-05-26T17:09:22.359Z,22.5
2019-05-26T17:10:24.626Z,22.7
2019-05-26T17:11:27.192Z,22.4
2019-05-26T17:12:29.429Z,22.5
2019-05-26T17:14:36.737Z,22.8
2019-05-26T17:16:41.240Z,22.8
2019-05-26T17:17:43.433Z,22.4
2019-05-26T17:19:53.471Z,22.5
2019-05-26T17:21:57.920Z,22.8
2019-05-26T17:24:04.214Z,22.5
2019-05-26T17:25:06.383Z,22.7
2019-05-26T17:27:10.927Z,22.8
2019-05-26T17:29:15.758Z,22.6
2019-05-26T17:31:21.002Z,22.4
2019-05-26T17:32:23.184Z,22.8
2019-05-26T17:34:27.933Z,22.6
2019-05-26T17:36:32.404Z,22.7
2019-05-26T17:37:35.493Z,22.6
2019-05-26T17:38:37.696Z,22.7
2019-05-26T17:39:39.886Z,22.2
2019-05-26T17:41:44.634Z,22.5
2019-05-26T17:43:49.391Z,22.4
2019-05-26T17:44:51.976Z,22.3
2019-05-26T17:46:56.824Z,22.3
2019-05-26T17:49:02.250Z,22.4
2019-05-26T17:50:04.887Z,22.5
2019-05-26T17:51:07.148Z,22.4
2019-05-26T17:52:09.296Z,22.5
2019-05-26T17:54:14.140Z,22.3
2019-05-26T17:56:18.591Z,22.8
2019-05-26T17:57:21.056Z,22.4
2019-05-26T17:59:25.537Z,22.7
2019-05-26T18:01:30.166Z,22.3
2019-05-26T18:03:34.911Z,22.4
2019-05-26T18:04:37.514Z,22.4
2019-05-26T18:06:42.517Z,22.4
2019-05-26T18:08:47.282Z,22.1
2019-05-26T18:09:49.743Z,22.2
2019-05-26T18:10:51.953Z,22.4
2019-05-26T18:11:54.209Z,22.4
2019-05-26T18:13:59.442Z,22.3
2019-05-26T18:16:04.353Z,22
2019-05-26T18:17:06.539Z,22.2
2019-05-26T18:19:11.012Z,22.2
2019-05-26T18:21:15.671Z,22
2019-05-26T18:23:20.768Z,22.2
2019-05-26T18:24:22.963Z,22.1
2019-05-26T18:26:27.725Z,22.2
2019-05-26T18:28:32.228Z,22.1
2019-05-26T18:29:34.415Z,22
2019-05-26T18:30:36.683Z,21.7
2019-05-26T18:31:39.515Z,21.7
2019-05-26T18:33:44.827Z,21.6
2019-05-26T18:35:49.639Z,21.8
2019-05-26T18:36:51.822Z,21.9
2019-05-26T18:38:56.334Z,22.1
2019-05-26T18:41:01.363Z,21.8
2019-05-26T18:43:06.105Z,21.3
2019-05-26T18:44:08.326Z,21
2019-05-26T18:46:13.103Z,21.3
2019-05-26T18:48:17.967Z,21.5
2019-05-26T18:49:20.166Z,21.1
2019-05-26T18:50:22.370Z,21.2
2019-05-26T18:51:24.588Z,21.1
2019-05-26T18:53:31.300Z,21
2019-05-26T18:55:35.765Z,20.6
2019-05-26T18:56:38.002Z,20.8
2019-05-26T18:58:42.808Z,20.8
2019-05-26T19:00:49.106Z,20.8
2019-05-26T19:02:54.897Z,21
2019-05-26T19:03:57.481Z,20.8
2019-05-26T19:06:01.880Z,21
2019-05-26T19:08:06.750Z,21.1
2019-05-26T19:09:08.962Z,20.6
2019-05-26T19:10:11.167Z,20.7
2019-05-26T19:11:14.219Z,20.8
2019-05-26T19:13:18.807Z,20.9
2019-05-26T19:15:24.006Z,20.9
2019-05-26T19:16:26.460Z,20.9
2019-05-26T19:18:31.028Z,21
2019-05-26T19:20:35.559Z,20.5
2019-05-26T19:22:40.011Z,20.8
2019-05-26T19:23:42.214Z,20.7
2019-05-26T19:25:46.855Z,19.9
2019-05-26T19:27:52.070Z,19.9
2019-05-26T19:28:54.872Z,20.1
2019-05-26T19:30:59.360Z,19.5
2019-05-26T19:33:04.457Z,19.9
2019-05-26T19:35:09.239Z,19.8
2019-05-26T19:36:12.643Z,19.6
2019-05-26T19:38:17.738Z,19.4
2019-05-26T19:40:22.918Z,19.3
2019-05-26T19:41:25.120Z,19.4
2019-05-26T19:43:29.597Z,19.4
2019-05-26T19:45:34.419Z,18.9
2019-05-26T19:47:39.200Z,19
2019-05-26T19:48:41.662Z,19.4
2019-05-26T19:50:46.450Z,19.1
2019-05-26T19:52:51.434Z,19.3
2019-05-26T19:53:53.606Z,19.6
2019-05-26T19:54:55.805Z,19.1
2019-05-26T19:55:58.056Z,19.1
2019-05-26T19:58:03.175Z,19.4
2019-05-26T20:00:07.654Z,19.3
2019-05-26T20:01:09.784Z,18.9
2019-05-26T20:02:20.132Z,19.4
2019-05-26T20:03:22.338Z,19
2019-05-26T20:05:27.999Z,19
2019-05-26T20:07:32.417Z,19.1
2019-05-26T20:08:34.606Z,19.3
2019-05-26T20:10:39.079Z,19.2
2019-05-26T20:12:43.848Z,19.3
2019-05-26T20:13:46.830Z,19.1
2019-05-26T20:14:49.087Z,19
2019-05-26T20:15:51.334Z,18.9
2019-05-26T20:17:56.080Z,19
2019-05-26T20:20:00.512Z,18.8
2019-05-26T20:21:02.701Z,18.4
2019-05-26T20:23:08.163Z,18.9
2019-05-26T20:25:13.865Z,18.8
2019-05-26T20:27:18.959Z,18.8
2019-05-26T20:28:21.181Z,18.4
2019-05-26T20:30:25.676Z,18.7
2019-05-26T20:32:30.111Z,18.8
2019-05-26T20:33:32.243Z,18.6
2019-05-26T20:34:34.418Z,18.5
2019-05-26T20:35:36.693Z,18.5
2019-05-26T20:37:41.412Z,18.6
2019-05-26T20:39:46.130Z,18.9
2019-05-26T20:40:48.595Z,18.8
2019-05-26T20:42:53.027Z,18.6
2019-05-26T20:44:57.470Z,18.8
2019-05-26T20:47:01.829Z,18.6
2019-05-26T20:48:04.312Z,18.6
2019-05-26T20:50:10.153Z,18.5
2019-05-26T20:52:14.587Z,18.8
2019-05-26T20:53:16.798Z,18.3
2019-05-26T20:54:20.108Z,18.3
2019-05-26T20:55:22.326Z,18.6
2019-05-26T20:57:27.716Z,18.7
2019-05-26T20:59:32.941Z,18
2019-05-26T21:00:35.504Z,18.1
2019-05-26T21:02:39.974Z,18.4
2019-05-26T21:04:44.792Z,17.9
2019-05-26T21:06:49.838Z,18.6
2019-05-26T21:07:52.327Z,18.1
2019-05-26T21:09:56.997Z,18.4
2019-05-26T21:12:01.505Z,18
2019-05-26T21:13:03.693Z,17.9
2019-05-26T21:14:05.863Z,18.2
2019-05-26T21:15:08.090Z,18.2
2019-05-26T21:17:12.830Z,18.4
2019-05-26T21:19:17.284Z,18.3
2019-05-26T21:20:19.456Z,18.6
2019-05-26T21:22:24.196Z,18.6
2019-05-26T21:24:28.651Z,18.4
2019-05-26T21:25:30.824Z,18.1
2019-05-26T21:26:33.021Z,18.3
2019-05-26T21:27:35.474Z,18.5
2019-05-26T21:29:39.909Z,18.2